DEHUE EDDL-EDLW
Flight info
| Callsign | DEHUE |
|---|---|
| Flight time | 0h 18m |
| Altitude | 7000 |
| Route | MEVEL1Z MEVEL Z841 DOMEG DOMEG2A |
| Aircraft | BE36/L-BDFGLORY/S |
Departure
| Time | 2026-05-05 16:45 |
|---|---|
| Airport | Düsseldorf Airport (EDDL) |
Arrival
| Time | 2026-05-05 17:04 |
|---|---|
| Airport | Dortmund Airport (EDLW) |
| Time | Latitude | Longitude | Altitude | Speed | Heading |
|---|---|---|---|---|---|
| 2026-05-05 16:25 | 51.27668 | 6.75337 | 117 ft | 0 kts | 244° |
| 2026-05-05 16:27 | 51.27612 | 6.75267 | 118 ft | 0 kts | 58° |
| 2026-05-05 16:42 | 51.27613 | 6.75270 | 118 ft | 2 kts | 47° |
| 2026-05-05 16:42 | 51.27633 | 6.75251 | 114 ft | 5 kts | 262° |
| 2026-05-05 16:42 | 51.27635 | 6.75204 | 117 ft | 5 kts | 304° |
| 2026-05-05 16:42 | 51.27658 | 6.75185 | 118 ft | 3 kts | 358° |
| 2026-05-05 16:43 | 51.27717 | 6.75196 | 117 ft | 11 kts | 7° |
| 2026-05-05 16:43 | 51.27773 | 6.75269 | 115 ft | 11 kts | 53° |
| 2026-05-05 16:43 | 51.27814 | 6.75352 | 116 ft | 9 kts | 39° |
| 2026-05-05 16:43 | 51.27867 | 6.75330 | 115 ft | 9 kts | 332° |
| 2026-05-05 16:44 | 51.27928 | 6.75280 | 112 ft | 11 kts | 335° |
| 2026-05-05 16:44 | 51.27997 | 6.75289 | 111 ft | 10 kts | 37° |
| 2026-05-05 16:44 | 51.28148 | 6.75590 | 115 ft | 75 kts | 53° |
| 2026-05-05 16:44 | 51.28570 | 6.76474 | 235 ft | 117 kts | 50° |
| 2026-05-05 16:45 | 51.29121 | 6.77532 | 519 ft | 133 kts | 47° |
| 2026-05-05 16:45 | 51.29742 | 6.78642 | 840 ft | 140 kts | 46° |
| 2026-05-05 16:45 | 51.30446 | 6.79778 | 1084 ft | 145 kts | 38° |
| 2026-05-05 16:45 | 51.31326 | 6.80690 | 1134 ft | 154 kts | 13° |
| 2026-05-05 16:46 | 51.32319 | 6.80300 | 1252 ft | 158 kts | 322° |
| 2026-05-05 16:46 | 51.33110 | 6.79086 | 1369 ft | 158 kts | 318° |
| 2026-05-05 16:46 | 51.33887 | 6.77888 | 1542 ft | 155 kts | 318° |
| 2026-05-05 16:46 | 51.34673 | 6.76721 | 1671 ft | 156 kts | 321° |
| 2026-05-05 16:47 | 51.35556 | 6.75680 | 1724 ft | 159 kts | 330° |
| 2026-05-05 16:47 | 51.36556 | 6.74991 | 1863 ft | 155 kts | 345° |
| 2026-05-05 16:47 | 51.37615 | 6.74694 | 1955 ft | 155 kts | 355° |
| 2026-05-05 16:47 | 51.38702 | 6.74719 | 2024 ft | 157 kts | 6° |
| 2026-05-05 16:48 | 51.39786 | 6.74908 | 2159 ft | 157 kts | 6° |
| 2026-05-05 16:48 | 51.40876 | 6.75074 | 2275 ft | 158 kts | 5° |
| 2026-05-05 16:48 | 51.41985 | 6.75235 | 2292 ft | 162 kts | 5° |
| 2026-05-05 16:48 | 51.43108 | 6.75437 | 2295 ft | 162 kts | 13° |
| 2026-05-05 16:49 | 51.43997 | 6.76499 | 2302 ft | 166 kts | 54° |
| 2026-05-05 16:49 | 51.44577 | 6.78086 | 2306 ft | 168 kts | 58° |
| 2026-05-05 16:49 | 51.45156 | 6.79711 | 2307 ft | 168 kts | 58° |
| 2026-05-05 16:49 | 51.45745 | 6.81344 | 2307 ft | 169 kts | 58° |
| 2026-05-05 16:50 | 51.46317 | 6.82955 | 2306 ft | 164 kts | 58° |
| 2026-05-05 16:50 | 51.46874 | 6.84528 | 2305 ft | 161 kts | 58° |
| 2026-05-05 16:50 | 51.47239 | 6.85560 | 2300 ft | 160 kts | 58° |
| 2026-05-05 16:50 | 51.47969 | 6.87622 | 2300 ft | 158 kts | 58° |
| 2026-05-05 16:51 | 51.48511 | 6.89153 | 2301 ft | 157 kts | 58° |
| 2026-05-05 16:51 | 51.48869 | 6.90176 | 2305 ft | 159 kts | 59° |
| 2026-05-05 16:51 | 51.49287 | 6.92432 | 2302 ft | 160 kts | 75° |
| 2026-05-05 16:51 | 51.49442 | 6.93620 | 2303 ft | 161 kts | 75° |
| 2026-05-05 16:52 | 51.49684 | 6.95378 | 2311 ft | 161 kts | 75° |
| 2026-05-05 16:52 | 51.49922 | 6.97126 | 2308 ft | 163 kts | 75° |
| 2026-05-05 16:52 | 51.50170 | 6.98911 | 2308 ft | 164 kts | 75° |
| 2026-05-05 16:52 | 51.50416 | 7.00691 | 2303 ft | 162 kts | 75° |
| 2026-05-05 16:53 | 51.50654 | 7.02467 | 2304 ft | 162 kts | 75° |
| 2026-05-05 16:53 | 51.50889 | 7.04230 | 2300 ft | 161 kts | 75° |
| 2026-05-05 16:53 | 51.51126 | 7.05984 | 2310 ft | 161 kts | 75° |
| 2026-05-05 16:53 | 51.51362 | 7.07742 | 2304 ft | 160 kts | 75° |
| 2026-05-05 16:54 | 51.51600 | 7.09498 | 2310 ft | 161 kts | 75° |
| 2026-05-05 16:54 | 51.51835 | 7.11255 | 2304 ft | 160 kts | 75° |
| 2026-05-05 16:54 | 51.52068 | 7.13002 | 2306 ft | 161 kts | 75° |
| 2026-05-05 16:54 | 51.52300 | 7.14732 | 2299 ft | 160 kts | 75° |
| 2026-05-05 16:55 | 51.52533 | 7.16479 | 2300 ft | 160 kts | 75° |
| 2026-05-05 16:55 | 51.52764 | 7.18212 | 2341 ft | 157 kts | 75° |
| 2026-05-05 16:55 | 51.52993 | 7.19917 | 2382 ft | 155 kts | 75° |
| 2026-05-05 16:55 | 51.53272 | 7.21593 | 2433 ft | 155 kts | 71° |
| 2026-05-05 16:56 | 51.53570 | 7.23263 | 2488 ft | 156 kts | 71° |
| 2026-05-05 16:56 | 51.53869 | 7.24939 | 2534 ft | 156 kts | 71° |
| 2026-05-05 16:56 | 51.54173 | 7.26619 | 2584 ft | 156 kts | 71° |
| 2026-05-05 16:56 | 51.54475 | 7.28296 | 2641 ft | 156 kts | 71° |
| 2026-05-05 16:57 | 51.54780 | 7.29977 | 2690 ft | 157 kts | 70° |
| 2026-05-05 16:57 | 51.55088 | 7.31661 | 2733 ft | 157 kts | 71° |
| 2026-05-05 16:57 | 51.55388 | 7.33335 | 2782 ft | 155 kts | 71° |
| 2026-05-05 16:57 | 51.55685 | 7.34999 | 2827 ft | 154 kts | 71° |
| 2026-05-05 16:58 | 51.55985 | 7.36641 | 2877 ft | 153 kts | 71° |
| 2026-05-05 16:58 | 51.56283 | 7.38292 | 2927 ft | 154 kts | 71° |
| 2026-05-05 16:58 | 51.56575 | 7.39946 | 2954 ft | 155 kts | 71° |
| 2026-05-05 16:58 | 51.56882 | 7.41662 | 2856 ft | 162 kts | 71° |
| 2026-05-05 16:59 | 51.57197 | 7.43402 | 2746 ft | 166 kts | 71° |
| 2026-05-05 16:59 | 51.57525 | 7.45218 | 2634 ft | 170 kts | 71° |
| 2026-05-05 16:59 | 51.57857 | 7.47016 | 2628 ft | 164 kts | 71° |
| 2026-05-05 16:59 | 51.58171 | 7.48771 | 2634 ft | 163 kts | 71° |
| 2026-05-05 17:00 | 51.58483 | 7.50501 | 2628 ft | 158 kts | 72° |
| 2026-05-05 17:00 | 51.58473 | 7.52247 | 2523 ft | 160 kts | 108° |
| 2026-05-05 17:00 | 51.57888 | 7.53756 | 2454 ft | 163 kts | 128° |
| 2026-05-05 17:00 | 51.57139 | 7.55095 | 2427 ft | 161 kts | 131° |
| 2026-05-05 17:01 | 51.56326 | 7.56306 | 2422 ft | 158 kts | 141° |
| 2026-05-05 17:01 | 51.55610 | 7.57019 | 2437 ft | 158 kts | 154° |
| 2026-05-05 17:01 | 51.54574 | 7.57268 | 2395 ft | 149 kts | 190° |
| 2026-05-05 17:01 | 51.53643 | 7.56614 | 2187 ft | 141 kts | 218° |
| 2026-05-05 17:02 | 51.52835 | 7.55772 | 1906 ft | 136 kts | 200° |
| 2026-05-05 17:02 | 51.51930 | 7.55698 | 1575 ft | 122 kts | 162° |
| 2026-05-05 17:02 | 51.51329 | 7.56402 | 1328 ft | 99 kts | 118° |
| 2026-05-05 17:02 | 51.51102 | 7.57382 | 992 ft | 86 kts | 99° |
| 2026-05-05 17:03 | 51.51029 | 7.58311 | 691 ft | 83 kts | 84° |
| 2026-05-05 17:03 | 51.51162 | 7.59241 | 539 ft | 87 kts | 64° |
| 2026-05-05 17:03 | 51.51430 | 7.60068 | 436 ft | 82 kts | 58° |
| 2026-05-05 17:03 | 51.51683 | 7.60783 | 416 ft | 57 kts | 54° |
| 2026-05-05 17:04 | 51.51846 | 7.61245 | 414 ft | 42 kts | 56° |
| 2026-05-05 17:04 | 51.51962 | 7.61603 | 409 ft | 35 kts | 57° |
| 2026-05-05 17:04 | 51.52096 | 7.61958 | 408 ft | 38 kts | 59° |
| 2026-05-05 17:04 | 51.52195 | 7.62254 | 405 ft | 18 kts | 69° |
| 2026-05-05 17:05 | 51.52147 | 7.62361 | 405 ft | 0 kts | 163° |
| 2026-05-05 17:06 | 51.52100 | 7.62392 | 404 ft | 11 kts | 154° |
| 2026-05-05 17:06 | 51.52038 | 7.62355 | 404 ft | 13 kts | 237° |
| 2026-05-05 17:06 | 51.51989 | 7.62214 | 407 ft | 13 kts | 242° |
| 2026-05-05 17:07 | 51.51941 | 7.62074 | 408 ft | 14 kts | 239° |
| 2026-05-05 17:07 | 51.51897 | 7.61950 | 410 ft | 11 kts | 240° |
| 2026-05-05 17:07 | 51.51864 | 7.61855 | 411 ft | 9 kts | 241° |
| 2026-05-05 17:07 | 51.51824 | 7.61739 | 411 ft | 12 kts | 242° |
| 2026-05-05 17:08 | 51.51786 | 7.61634 | 414 ft | 11 kts | 240° |
| 2026-05-05 17:08 | 51.51744 | 7.61513 | 418 ft | 15 kts | 241° |
| 2026-05-05 17:08 | 51.51693 | 7.61369 | 420 ft | 16 kts | 241° |
| 2026-05-05 17:08 | 51.51642 | 7.61229 | 422 ft | 14 kts | 240° |
| 2026-05-05 17:09 | 51.51592 | 7.61089 | 423 ft | 12 kts | 240° |
| 2026-05-05 17:09 | 51.51555 | 7.61053 | 425 ft | 4 kts | 164° |
| 2026-05-05 17:09 | 51.51517 | 7.61058 | 428 ft | 7 kts | 207° |
| 2026-05-05 17:09 | 51.51470 | 7.61017 | 428 ft | 8 kts | 199° |
| 2026-05-05 17:10 | 51.51424 | 7.61021 | 432 ft | 0 kts | 134° |